createdAt,value
2022-08-05T00:00:50.570Z,3.60
2022-08-05T00:01:50.432Z,3.30
2022-08-05T00:02:51.611Z,3.50
2022-08-05T00:03:50.321Z,3.10
2022-08-05T00:04:55.306Z,2.90
2022-08-05T00:06:05.365Z,2.60
2022-08-05T00:06:51.764Z,2.60
2022-08-05T00:08:00.336Z,2.70
2022-08-05T00:08:51.281Z,2.80
2022-08-05T00:09:50.295Z,2.80
2022-08-05T00:10:50.340Z,2.80
2022-08-05T00:11:55.890Z,2.90
2022-08-05T00:12:56.466Z,2.90
2022-08-05T00:13:52.985Z,2.70
2022-08-05T00:14:51.892Z,2.60
2022-08-05T00:15:55.043Z,2.60
2022-08-05T00:16:52.497Z,2.90
2022-08-05T00:17:50.203Z,2.70
2022-08-05T00:18:50.212Z,2.80
2022-08-05T00:20:01.825Z,2.80
2022-08-05T00:20:51.178Z,2.70
2022-08-05T00:21:50.217Z,2.80
2022-08-05T00:22:57.453Z,2.80
2022-08-05T00:23:53.658Z,2.60
2022-08-05T00:24:55.005Z,2.40
2022-08-05T00:25:50.134Z,2.70
2022-08-05T00:26:51.954Z,2.70
2022-08-05T00:27:50.125Z,2.60
2022-08-05T00:28:50.117Z,2.60
2022-08-05T00:29:50.103Z,2.50
2022-08-05T00:30:52.036Z,3.10
2022-08-05T00:32:10.562Z,3.10
2022-08-05T00:32:51.076Z,3.70
2022-08-05T00:34:55.264Z,3.70
2022-08-05T00:35:04.654Z,3.70
2022-08-05T00:36:16.516Z,3.50
2022-08-05T00:37:10.727Z,3.80
2022-08-05T00:37:53.965Z,3.40
2022-08-05T00:38:50.024Z,3.80
2022-08-05T00:39:58.011Z,3.50
2022-08-05T00:40:53.210Z,3.30
2022-08-05T00:41:54.894Z,3.20
2022-08-05T00:42:50.991Z,2.70
2022-08-05T00:43:50.161Z,3.10
2022-08-05T00:44:49.978Z,3.00
2022-08-05T00:45:49.978Z,3.00
2022-08-05T00:46:54.139Z,3.20
2022-08-05T00:47:57.336Z,3.00
2022-08-05T00:48:51.482Z,2.70
2022-08-05T00:49:51.789Z,2.90
2022-08-05T00:50:50.004Z,2.90
2022-08-05T00:51:52.172Z,2.90
2022-08-05T00:52:49.926Z,2.70
2022-08-05T00:54:02.234Z,2.90
2022-08-05T00:54:50.902Z,2.70
2022-08-05T00:55:49.891Z,3.10
2022-08-05T00:56:51.769Z,3.20
2022-08-05T00:57:55.409Z,3.10
2022-08-05T00:58:50.863Z,3.80
2022-08-05T00:59:49.860Z,3.60
2022-08-05T01:00:49.845Z,3.60
2022-08-05T01:01:49.910Z,3.90
2022-08-05T01:02:50.205Z,3.40
2022-08-05T01:03:50.078Z,3.40
2022-08-05T01:04:50.394Z,3.00
2022-08-05T01:05:49.804Z,3.40
2022-08-05T01:06:51.744Z,3.90
2022-08-05T01:08:29.790Z,3.70
2022-08-05T01:08:50.773Z,3.50
2022-08-05T01:09:55.672Z,3.30
2022-08-05T01:10:52.278Z,3.40
2022-08-05T01:11:49.759Z,3.90
2022-08-05T01:13:05.366Z,3.50
2022-08-05T01:13:58.494Z,3.80
2022-08-05T01:14:50.736Z,3.70
2022-08-05T01:15:49.723Z,3.90
2022-08-05T01:16:49.716Z,3.30
2022-08-05T01:17:53.731Z,3.60
2022-08-05T01:18:56.200Z,3.70
2022-08-05T01:20:01.614Z,4.00
2022-08-05T01:20:50.715Z,4.40
2022-08-05T01:21:50.696Z,4.10
2022-08-05T01:22:49.730Z,3.50
2022-08-05T01:23:53.139Z,3.30
2022-08-05T01:24:49.644Z,3.60
2022-08-05T01:25:50.250Z,3.60
2022-08-05T01:26:49.631Z,3.60
2022-08-05T01:27:55.349Z,4.00
2022-08-05T01:28:50.621Z,3.30
2022-08-05T01:29:49.700Z,3.40
2022-08-05T01:30:53.905Z,3.20
2022-08-05T01:31:50.622Z,3.80
2022-08-05T01:32:49.589Z,3.50
2022-08-05T01:33:53.457Z,3.90
2022-08-05T01:34:49.671Z,3.90
2022-08-05T01:35:51.805Z,3.30
2022-08-05T01:36:49.589Z,2.80
2022-08-05T01:37:49.545Z,2.10
2022-08-05T01:38:49.871Z,2.30
2022-08-05T01:39:50.599Z,2.10
2022-08-05T01:40:49.516Z,2.10
2022-08-05T01:41:49.537Z,2.50
2022-08-05T01:42:49.499Z,2.30
2022-08-05T01:43:49.490Z,2.70
2022-08-05T01:44:54.253Z,3.00
2022-08-05T01:45:56.416Z,2.80
2022-08-05T01:46:50.505Z,3.20
2022-08-05T01:47:49.458Z,2.90
2022-08-05T01:48:50.453Z,3.20
2022-08-05T01:50:01.335Z,3.20
2022-08-05T01:50:51.335Z,2.60
2022-08-05T01:51:51.740Z,3.40
2022-08-05T01:52:49.704Z,3.40
2022-08-05T01:53:57.742Z,3.20
2022-08-05T01:54:52.842Z,2.90
2022-08-05T01:55:49.396Z,3.10
2022-08-05T01:58:11.967Z,3.30
2022-08-05T01:58:12.246Z,2.20
2022-08-05T01:58:50.831Z,2.70
2022-08-05T01:59:50.365Z,3.20
2022-08-05T02:00:49.348Z,3.60
2022-08-05T02:01:49.429Z,3.80
2022-08-05T02:02:54.293Z,2.90
2022-08-05T02:03:50.324Z,3.10
2022-08-05T02:04:49.659Z,2.70
2022-08-05T02:05:49.318Z,3.10
2022-08-05T02:06:49.326Z,3.20
2022-08-05T02:07:59.834Z,3.50
2022-08-05T02:08:58.164Z,2.90
2022-08-05T02:09:50.271Z,2.80
2022-08-05T02:10:49.279Z,3.50
2022-08-05T02:11:52.477Z,3.00
2022-08-05T02:12:50.980Z,3.50
2022-08-05T02:13:53.648Z,3.70
2022-08-05T02:14:49.240Z,3.40
2022-08-05T02:15:49.230Z,3.40
2022-08-05T02:16:52.313Z,3.60
2022-08-05T02:18:33.297Z,3.90
2022-08-05T02:18:50.197Z,3.40
2022-08-05T02:19:49.197Z,4.30
2022-08-05T02:20:49.343Z,4.10
2022-08-05T02:21:49.373Z,3.60
2022-08-05T02:22:49.164Z,4.00
2022-08-05T02:23:49.158Z,3.60
2022-08-05T02:24:51.328Z,4.00
2022-08-05T02:25:50.558Z,3.50
2022-08-05T02:26:54.567Z,3.90
2022-08-05T02:27:59.050Z,4.30
2022-08-05T02:28:50.127Z,4.20
2022-08-05T02:29:59.938Z,4.20
2022-08-05T02:30:51.640Z,3.90
2022-08-05T02:31:49.098Z,4.40
2022-08-05T02:32:49.110Z,4.50
2022-08-05T02:33:49.074Z,4.00
2022-08-05T02:34:54.516Z,5.30
2022-08-05T02:35:58.927Z,6.80
2022-08-05T02:36:50.053Z,6.50
2022-08-05T02:37:54.176Z,6.00
2022-08-05T02:38:52.963Z,7.80
2022-08-05T02:39:51.524Z,7.90
2022-08-05T02:40:49.025Z,7.50
2022-08-05T02:41:57.985Z,6.30
2022-08-05T02:42:52.709Z,7.40
2022-08-05T02:44:02.919Z,7.20
2022-08-05T02:44:49.981Z,8.00
2022-08-05T02:45:52.573Z,7.50
2022-08-05T02:46:53.817Z,8.60
2022-08-05T02:48:07.428Z,8.80
2022-08-05T02:48:49.963Z,7.70
2022-08-05T02:49:48.947Z,9.20
2022-08-05T02:50:48.932Z,8.70
2022-08-05T02:52:04.421Z,8.00
2022-08-05T02:52:49.931Z,7.80
2022-08-05T02:53:48.913Z,8.90
2022-08-05T02:54:51.160Z,8.80
2022-08-05T02:55:54.651Z,10.70
2022-08-05T02:56:49.923Z,10.20
2022-08-05T02:58:09.654Z,10.90
2022-08-05T02:58:51.239Z,9.90
2022-08-05T02:59:51.940Z,10.50
2022-08-05T03:00:48.857Z,9.70
2022-08-05T03:01:48.946Z,9.00
2022-08-05T03:02:48.842Z,9.70
2022-08-05T03:04:02.157Z,9.50
2022-08-05T03:04:53.241Z,8.70
2022-08-05T03:06:57.024Z,9.90
2022-08-05T03:06:59.480Z,10.90
2022-08-05T03:08:01.396Z,10.30
2022-08-05T03:08:52.047Z,10.80
2022-08-05T03:09:51.484Z,10.90
2022-08-05T03:11:53.129Z,11.10
2022-08-05T03:11:56.273Z,11.90
2022-08-05T03:12:51.813Z,13.00
2022-08-05T03:13:51.896Z,12.30
2022-08-05T03:14:50.732Z,12.00
2022-08-05T03:15:48.723Z,11.30
2022-08-05T03:16:48.751Z,11.00
2022-08-05T03:17:48.709Z,10.70
2022-08-05T03:18:49.697Z,9.50
2022-08-05T03:19:48.693Z,9.00
2022-08-05T03:20:49.073Z,8.00
2022-08-05T03:21:50.024Z,7.80
2022-08-05T03:22:50.503Z,7.60
2022-08-05T03:23:48.662Z,7.20
2022-08-05T03:24:51.099Z,7.80
2022-08-05T03:26:05.045Z,7.50
2022-08-05T03:26:49.661Z,8.30
2022-08-05T03:28:00.231Z,9.30
2022-08-05T03:28:49.618Z,9.30
2022-08-05T03:30:07.416Z,9.70
2022-08-05T03:30:49.613Z,9.10
2022-08-05T03:31:57.262Z,7.80
2022-08-05T03:32:49.591Z,8.00
2022-08-05T03:33:52.978Z,8.60
2022-08-05T03:34:50.996Z,8.10
2022-08-05T03:35:48.567Z,7.40
2022-08-05T03:36:48.601Z,7.30
2022-08-05T03:37:48.546Z,6.80
2022-08-05T03:38:53.258Z,7.20
2022-08-05T03:39:59.080Z,6.90
2022-08-05T03:40:49.591Z,7.50
2022-08-05T03:41:48.546Z,7.50
2022-08-05T03:42:52.203Z,7.30
2022-08-05T03:44:08.815Z,6.80
2022-08-05T03:44:49.483Z,7.00
2022-08-05T03:45:57.216Z,6.30
2022-08-05T03:46:49.495Z,6.50
2022-08-05T03:47:49.340Z,7.60
2022-08-05T03:48:48.516Z,7.50
2022-08-05T03:49:51.229Z,7.00
2022-08-05T03:50:48.437Z,7.70
2022-08-05T03:52:48.404Z,7.00
2022-08-05T03:55:34.061Z,7.50
2022-08-05T03:55:52.303Z,7.00
2022-08-05T03:55:53.871Z,7.00
2022-08-05T03:56:06.028Z,6.40
2022-08-05T03:56:50.095Z,5.90
2022-08-05T03:57:48.713Z,7.00
2022-08-05T03:58:48.382Z,6.00
2022-08-05T03:59:55.430Z,5.50
2022-08-05T04:00:51.539Z,6.00
2022-08-05T04:01:48.512Z,5.90
2022-08-05T04:02:57.975Z,6.10
2022-08-05T04:04:09.196Z,5.60
2022-08-05T04:04:49.317Z,6.00
2022-08-05T04:05:48.311Z,4.70
2022-08-05T04:06:51.404Z,5.60
2022-08-05T04:07:58.653Z,5.80
2022-08-05T04:08:49.290Z,6.00
2022-08-05T04:09:53.788Z,6.60
2022-08-05T04:10:49.271Z,5.90
2022-08-05T04:11:52.466Z,5.40
2022-08-05T04:12:48.286Z,5.60
2022-08-05T04:13:50.610Z,5.50
2022-08-05T04:14:49.236Z,6.10
2022-08-05T04:15:53.019Z,5.80
2022-08-05T04:16:49.217Z,6.20
2022-08-05T04:17:56.299Z,7.30
2022-08-05T04:18:54.509Z,8.90
2022-08-05T04:19:54.506Z,9.70
2022-08-05T04:20:49.180Z,10.20
2022-08-05T04:22:09.258Z,9.70
2022-08-05T04:22:49.197Z,9.90
2022-08-05T04:24:05.256Z,8.60
2022-08-05T04:24:52.707Z,8.60
2022-08-05T04:26:00.243Z,8.40
2022-08-05T04:26:49.140Z,8.50
2022-08-05T04:27:58.220Z,8.90
2022-08-05T04:28:51.349Z,8.00
2022-08-05T04:29:48.453Z,8.50
2022-08-05T04:30:48.174Z,8.30
2022-08-05T04:31:48.445Z,8.10
2022-08-05T04:32:48.118Z,8.60
2022-08-05T04:34:17.269Z,8.10
2022-08-05T04:34:49.066Z,7.60
2022-08-05T04:36:09.430Z,7.80
2022-08-05T04:36:50.216Z,7.90
2022-08-05T04:38:02.305Z,7.30
2022-08-05T04:38:51.118Z,7.00
2022-08-05T04:39:52.955Z,7.60
2022-08-05T04:40:50.773Z,7.50
2022-08-05T04:41:48.448Z,7.80
2022-08-05T04:42:48.035Z,7.90
2022-08-05T04:43:52.038Z,7.80
2022-08-05T04:44:48.979Z,7.50
2022-08-05T04:45:55.033Z,7.40
2022-08-05T04:46:48.965Z,6.30
2022-08-05T04:47:47.991Z,6.30
2022-08-05T04:48:47.944Z,7.20
2022-08-05T04:50:01.645Z,6.80
2022-08-05T04:51:03.264Z,6.60
2022-08-05T04:51:48.919Z,6.40
2022-08-05T04:52:48.942Z,6.60
2022-08-05T04:53:47.913Z,6.50
2022-08-05T04:54:49.449Z,6.20
2022-08-05T04:56:14.702Z,7.20
2022-08-05T04:56:48.885Z,6.80
2022-08-05T04:57:54.201Z,6.70
2022-08-05T04:58:48.865Z,6.30
2022-08-05T04:59:48.039Z,6.50
2022-08-05T05:00:50.851Z,6.80
2022-08-05T05:02:07.118Z,7.40
2022-08-05T05:02:48.929Z,6.90
2022-08-05T05:03:47.830Z,7.30
2022-08-05T05:04:50.505Z,6.60
2022-08-05T05:06:36.507Z,6.80
2022-08-05T05:06:49.201Z,8.50
2022-08-05T05:07:52.992Z,8.30
2022-08-05T05:08:50.189Z,8.30
2022-08-05T05:09:47.779Z,9.40
2022-08-05T05:10:55.920Z,11.10
2022-08-05T05:11:54.025Z,9.00
2022-08-05T05:12:48.773Z,7.60
2022-08-05T05:13:47.747Z,6.80
2022-08-05T05:14:49.385Z,6.80
2022-08-05T05:15:59.511Z,6.70
2022-08-05T05:16:48.714Z,8.00
2022-08-05T05:17:55.887Z,8.70
2022-08-05T05:19:16.430Z,9.50
2022-08-05T05:19:49.689Z,8.50
2022-08-05T05:20:47.681Z,8.70
2022-08-05T05:21:47.673Z,7.50
2022-08-05T05:22:47.669Z,7.70
2022-08-05T05:24:03.734Z,8.20
2022-08-05T05:24:58.035Z,8.60
2022-08-05T05:25:48.648Z,7.80
2022-08-05T05:26:47.976Z,6.80
2022-08-05T05:27:53.631Z,7.20
2022-08-05T05:28:48.647Z,8.80
2022-08-05T05:30:04.339Z,8.30
2022-08-05T05:30:49.569Z,9.30
2022-08-05T05:31:48.653Z,9.80
2022-08-05T05:32:47.597Z,10.00
2022-08-05T05:33:58.900Z,9.20
2022-08-05T05:34:48.566Z,9.20
2022-08-05T05:35:48.017Z,9.00
2022-08-05T05:36:47.559Z,9.60
2022-08-05T05:38:01.396Z,9.10
2022-08-05T05:38:48.569Z,8.50
2022-08-05T05:39:47.591Z,8.70
2022-08-05T05:40:51.205Z,8.10
2022-08-05T05:41:54.322Z,8.80
2022-08-05T05:42:48.505Z,4.40
2022-08-05T05:43:56.791Z,3.60
2022-08-05T05:44:48.483Z,2.90
2022-08-05T05:45:48.228Z,3.50
2022-08-05T05:46:47.779Z,2.30
2022-08-05T05:48:06.593Z,2.10
2022-08-05T05:48:49.012Z,3.20
2022-08-05T05:49:47.454Z,3.60
2022-08-05T05:50:48.435Z,4.80
2022-08-05T05:51:50.632Z,5.80
2022-08-05T05:52:47.425Z,7.00
2022-08-05T05:53:57.635Z,6.80
2022-08-05T05:54:50.224Z,7.10
2022-08-05T05:55:52.111Z,6.80
2022-08-05T05:56:48.392Z,7.00
2022-08-05T05:57:52.902Z,7.00
2022-08-05T05:58:48.398Z,7.10
2022-08-05T05:59:47.358Z,6.20
2022-08-05T06:00:47.353Z,6.80
2022-08-05T06:01:57.831Z,6.80
2022-08-05T06:02:48.347Z,7.50
2022-08-05T06:04:01.395Z,7.20
2022-08-05T06:04:49.343Z,7.10
2022-08-05T06:05:54.149Z,8.10
2022-08-05T06:06:49.047Z,8.50
2022-08-05T06:07:57.798Z,9.20
2022-08-05T06:08:49.395Z,9.90
2022-08-05T06:09:59.874Z,9.60
2022-08-05T06:10:49.190Z,10.80
2022-08-05T06:12:00.976Z,10.70
2022-08-05T06:12:48.249Z,10.90
2022-08-05T06:13:53.877Z,10.60
2022-08-05T06:14:48.236Z,10.10
2022-08-05T06:16:30.333Z,9.90
2022-08-05T06:16:48.213Z,9.50
2022-08-05T06:17:53.586Z,9.30
2022-08-05T06:18:48.240Z,9.50
2022-08-05T06:19:56.988Z,8.60
2022-08-05T06:20:48.189Z,7.90
2022-08-05T06:21:49.756Z,7.60
2022-08-05T06:22:48.171Z,8.20
2022-08-05T06:23:47.191Z,9.20
2022-08-05T06:24:48.158Z,9.40
2022-08-05T06:26:12.237Z,8.90
2022-08-05T06:26:51.571Z,8.20
2022-08-05T06:28:11.762Z,9.20
2022-08-05T06:28:48.148Z,9.60
2022-08-05T06:30:04.179Z,10.00
2022-08-05T06:30:49.189Z,9.80
2022-08-05T06:31:47.106Z,9.50
2022-08-05T06:32:47.100Z,9.70
2022-08-05T06:34:07.117Z,9.80
2022-08-05T06:34:48.074Z,9.40
2022-08-05T06:36:07.089Z,10.40
2022-08-05T06:36:57.702Z,9.20
2022-08-05T06:37:57.450Z,10.20
2022-08-05T06:38:48.068Z,9.30
2022-08-05T06:39:47.070Z,8.20
2022-08-05T06:40:47.022Z,8.10
2022-08-05T06:41:47.016Z,7.90
2022-08-05T06:42:47.009Z,7.50
2022-08-05T06:43:58.550Z,7.80
2022-08-05T06:44:49.291Z,7.00
2022-08-05T06:46:06.528Z,6.70
2022-08-05T06:46:47.973Z,5.80
2022-08-05T06:48:37.316Z,5.90
2022-08-05T06:48:55.503Z,6.30
2022-08-05T06:50:01.354Z,6.20
2022-08-05T06:50:47.934Z,7.10
2022-08-05T06:51:46.935Z,6.30
2022-08-05T06:52:58.617Z,5.60
2022-08-05T06:53:53.747Z,5.90
2022-08-05T06:54:52.051Z,5.60
2022-08-05T06:55:47.904Z,5.90
2022-08-05T06:56:54.905Z,5.90
2022-08-05T06:58:03.305Z,5.70
2022-08-05T06:58:47.865Z,5.60
2022-08-05T06:59:48.537Z,5.60
2022-08-05T07:00:47.867Z,5.20
2022-08-05T07:01:46.878Z,5.80
2022-08-05T07:02:47.840Z,5.80
2022-08-05T07:03:47.826Z,6.10
2022-08-05T07:04:46.858Z,5.90
2022-08-05T07:05:46.812Z,6.20
2022-08-05T07:06:46.805Z,5.70
2022-08-05T07:07:46.797Z,6.10
2022-08-05T07:08:47.187Z,5.70
2022-08-05T07:09:46.810Z,5.90
2022-08-05T07:10:52.586Z,6.00
2022-08-05T07:11:51.421Z,6.10
2022-08-05T07:12:49.133Z,6.50
2022-08-05T07:13:57.535Z,5.70
2022-08-05T07:14:47.763Z,5.10
2022-08-05T07:16:01.995Z,5.70
2022-08-05T07:17:58.981Z,5.40
2022-08-05T07:18:09.381Z,4.50
2022-08-05T07:18:48.026Z,4.40
2022-08-05T07:20:48.689Z,4.60
2022-08-05T07:22:00.886Z,5.00
2022-08-05T07:22:47.944Z,4.50
2022-08-05T07:23:49.179Z,4.60
2022-08-05T07:24:52.470Z,4.40
2022-08-05T07:25:55.016Z,3.80
2022-08-05T07:26:48.637Z,4.40
2022-08-05T07:27:58.799Z,4.50
2022-08-05T07:28:47.620Z,4.50
2022-08-05T07:30:22.802Z,4.30
2022-08-05T07:30:50.269Z,4.50
2022-08-05T07:31:54.715Z,4.90
2022-08-05T07:32:50.930Z,4.50
2022-08-05T07:33:47.577Z,5.00
2022-08-05T07:34:46.641Z,4.60
2022-08-05T07:36:04.783Z,4.50
2022-08-05T07:36:47.557Z,4.60
2022-08-05T07:37:47.317Z,4.60
2022-08-05T07:38:46.550Z,4.30
2022-08-05T07:40:26.305Z,4.50
2022-08-05T07:40:47.575Z,4.80
2022-08-05T07:42:08.032Z,5.00
2022-08-05T07:42:47.513Z,4.20
2022-08-05T07:43:46.504Z,4.70
2022-08-05T07:44:46.529Z,5.40
2022-08-05T07:45:57.395Z,4.90
2022-08-05T07:46:48.390Z,4.30
2022-08-05T07:47:46.474Z,4.40
2022-08-05T07:49:01.797Z,4.80
2022-08-05T07:49:54.678Z,4.30
2022-08-05T07:50:47.444Z,4.40
2022-08-05T07:51:53.877Z,4.40
2022-08-05T07:52:47.420Z,4.40
2022-08-05T07:53:50.507Z,4.10
2022-08-05T07:54:49.126Z,4.30
2022-08-05T07:56:06.453Z,4.10
2022-08-05T07:57:01.827Z,4.40
2022-08-05T07:57:57.509Z,4.40
2022-08-05T07:58:54.776Z,4.20
2022-08-05T07:59:49.007Z,4.20
2022-08-05T08:00:46.405Z,4.50
2022-08-05T08:01:52.292Z,4.90
2022-08-05T08:03:15.420Z,4.30
2022-08-05T08:03:47.372Z,5.20
2022-08-05T08:04:46.367Z,4.70
2022-08-05T08:05:49.811Z,5.30
2022-08-05T08:06:47.312Z,4.90
2022-08-05T08:07:58.863Z,4.60
2022-08-05T08:08:47.307Z,4.50
2022-08-05T08:09:46.318Z,5.10
2022-08-05T08:10:48.693Z,4.70
2022-08-05T08:11:49.467Z,5.10
2022-08-05T08:12:48.681Z,4.50
2022-08-05T08:14:00.892Z,5.00
2022-08-05T08:14:47.292Z,5.10
2022-08-05T08:16:49.761Z,5.30
2022-08-05T08:16:51.452Z,5.10
2022-08-05T08:17:52.489Z,4.30
2022-08-05T08:18:49.913Z,4.80
2022-08-05T08:20:43.642Z,4.90
2022-08-05T08:21:03.001Z,4.70
2022-08-05T08:21:47.186Z,4.40
2022-08-05T08:22:46.176Z,4.50
2022-08-05T08:24:01.768Z,4.60
2022-08-05T08:24:51.359Z,4.70
2022-08-05T08:26:00.457Z,4.70
2022-08-05T08:26:47.143Z,4.90
2022-08-05T08:27:47.771Z,4.80
2022-08-05T08:28:58.928Z,4.70
2022-08-05T08:30:05.897Z,4.90
2022-08-05T08:30:47.855Z,4.70
2022-08-05T08:31:46.111Z,4.70
2022-08-05T08:32:46.102Z,4.70
2022-08-05T08:33:46.091Z,4.80
2022-08-05T08:34:47.138Z,4.80
2022-08-05T08:35:53.112Z,4.10
2022-08-05T08:36:52.618Z,4.70
2022-08-05T08:37:47.066Z,4.70
2022-08-05T08:38:53.254Z,4.60
2022-08-05T08:39:49.550Z,4.80
2022-08-05T08:40:51.548Z,4.80
2022-08-05T08:41:51.737Z,4.30
2022-08-05T08:42:52.377Z,4.20
2022-08-05T08:45:16.542Z,4.60
2022-08-05T08:45:22.763Z,4.60
2022-08-05T08:45:46.988Z,4.10
2022-08-05T08:46:45.983Z,4.40
2022-08-05T08:48:05.917Z,4.60
2022-08-05T08:49:06.238Z,4.90
2022-08-05T08:50:06.103Z,4.80
2022-08-05T08:51:03.411Z,5.10
2022-08-05T08:52:05.887Z,4.50
2022-08-05T08:52:51.387Z,4.40
2022-08-05T08:53:46.019Z,4.80
2022-08-05T08:54:46.045Z,5.00
2022-08-05T08:56:03.605Z,4.40
2022-08-05T08:56:47.632Z,4.10
2022-08-05T08:57:57.863Z,4.40
2022-08-05T08:58:48.705Z,4.50
2022-08-05T08:59:47.171Z,4.40
2022-08-05T09:00:45.986Z,4.20
2022-08-05T09:01:45.862Z,4.40
2022-08-05T09:02:46.861Z,4.00
2022-08-05T09:03:45.851Z,3.80
2022-08-05T09:04:58.250Z,3.60
2022-08-05T09:06:08.603Z,3.30
2022-08-05T09:06:46.815Z,3.90
2022-08-05T09:07:57.506Z,4.10
2022-08-05T09:08:46.830Z,3.60
2022-08-05T09:09:45.830Z,3.70
2022-08-05T09:10:46.734Z,3.40
2022-08-05T09:11:52.860Z,3.50
2022-08-05T09:12:51.056Z,3.70
2022-08-05T09:14:00.803Z,3.70
2022-08-05T09:14:57.153Z,3.70
2022-08-05T09:15:46.753Z,3.50
2022-08-05T09:16:49.026Z,3.90
2022-08-05T09:17:49.565Z,3.50
2022-08-05T09:18:45.729Z,3.80
2022-08-05T09:20:01.420Z,3.80
2022-08-05T09:20:46.716Z,3.40
2022-08-05T09:22:21.999Z,3.60
2022-08-05T09:22:51.790Z,3.80
2022-08-05T09:23:46.696Z,3.60
2022-08-05T09:24:45.730Z,3.90
2022-08-05T09:26:03.069Z,3.60
2022-08-05T09:26:46.674Z,3.90
2022-08-05T09:28:04.890Z,3.70
2022-08-05T09:28:46.665Z,3.80
2022-08-05T09:29:47.935Z,3.70
2022-08-05T09:30:45.646Z,3.60
2022-08-05T09:32:41.483Z,3.80
2022-08-05T09:32:46.988Z,3.60
2022-08-05T09:33:45.620Z,3.50
2022-08-05T09:34:45.649Z,4.00
2022-08-05T09:35:45.614Z,3.70
2022-08-05T09:36:56.173Z,3.30
2022-08-05T09:38:16.459Z,3.40
2022-08-05T09:38:46.581Z,4.00
2022-08-05T09:39:55.889Z,3.80
2022-08-05T09:40:52.501Z,3.60
2022-08-05T09:41:46.574Z,3.60
2022-08-05T09:42:48.404Z,3.60
2022-08-05T09:43:45.549Z,3.40
2022-08-05T09:44:45.533Z,3.50
2022-08-05T09:46:06.857Z,3.40
2022-08-05T09:46:51.711Z,3.70
2022-08-05T09:47:55.588Z,3.80
2022-08-05T09:49:06.521Z,3.50
2022-08-05T09:50:01.281Z,3.60
2022-08-05T09:50:46.510Z,3.40
2022-08-05T09:51:49.677Z,3.50
2022-08-05T09:52:45.472Z,4.20
2022-08-05T09:53:54.805Z,4.00
2022-08-05T09:54:46.456Z,3.70
2022-08-05T09:55:57.261Z,3.30
2022-08-05T09:56:52.320Z,3.70
2022-08-05T09:57:46.427Z,3.50
2022-08-05T09:58:45.425Z,3.50
2022-08-05T09:59:45.415Z,3.40
2022-08-05T10:00:45.439Z,3.60
2022-08-05T10:01:45.765Z,3.10
2022-08-05T10:02:45.442Z,3.00
2022-08-05T10:03:58.936Z,3.60
2022-08-05T10:04:46.378Z,3.30
2022-08-05T10:05:45.397Z,4.00
2022-08-05T10:06:49.808Z,3.70
2022-08-05T10:08:36.482Z,3.80
2022-08-05T10:08:53.765Z,3.60
2022-08-05T10:09:46.333Z,3.60
2022-08-05T10:10:48.269Z,3.90
2022-08-05T10:11:45.468Z,3.30
2022-08-05T10:12:49.716Z,3.40
2022-08-05T10:13:48.247Z,3.30
2022-08-05T10:14:45.296Z,3.60
2022-08-05T10:15:45.319Z,3.40
2022-08-05T10:16:52.857Z,3.60
2022-08-05T10:17:56.846Z,3.40
2022-08-05T10:18:48.213Z,3.50
2022-08-05T10:20:04.503Z,3.40
2022-08-05T10:20:48.341Z,3.50
2022-08-05T10:21:45.278Z,4.20
2022-08-05T10:22:50.957Z,3.50
2022-08-05T10:23:55.393Z,3.30
2022-08-05T10:24:46.221Z,3.50
2022-08-05T10:25:45.240Z,3.60
2022-08-05T10:26:51.459Z,3.40
2022-08-05T10:28:13.080Z,3.40
2022-08-05T10:28:46.590Z,3.30
2022-08-05T10:30:06.719Z,3.40
2022-08-05T10:32:50.750Z,3.00
2022-08-05T10:32:52.647Z,3.10
2022-08-05T10:32:54.860Z,3.70
2022-08-05T10:33:46.160Z,3.30
2022-08-05T10:34:46.177Z,3.10
2022-08-05T10:35:48.439Z,2.90
2022-08-05T10:36:46.121Z,3.20
2022-08-05T10:37:45.311Z,3.10
2022-08-05T10:38:45.162Z,2.90
2022-08-05T10:40:03.946Z,3.10
2022-08-05T10:40:46.140Z,3.10
2022-08-05T10:41:47.159Z,2.90
2022-08-05T10:42:45.080Z,3.10
2022-08-05T10:43:45.076Z,2.80
2022-08-05T10:44:45.087Z,3.10
2022-08-05T10:45:45.067Z,2.80
2022-08-05T10:46:45.047Z,3.30
2022-08-05T10:47:56.103Z,2.50
2022-08-05T10:48:58.063Z,2.60
2022-08-05T10:49:48.803Z,2.80
2022-08-05T10:50:45.025Z,2.50
2022-08-05T10:51:53.168Z,2.50
2022-08-05T10:52:49.548Z,2.70
2022-08-05T10:53:45.302Z,2.60
2022-08-05T10:54:47.098Z,2.90
2022-08-05T10:56:05.404Z,2.90
2022-08-05T10:56:45.961Z,2.50
2022-08-05T10:57:44.958Z,2.70
2022-08-05T10:58:48.705Z,2.80
2022-08-05T11:00:03.101Z,2.60
2022-08-05T11:00:45.965Z,3.00
2022-08-05T11:01:54.899Z,2.30
2022-08-05T11:02:50.503Z,2.50
2022-08-05T11:03:45.981Z,2.30
2022-08-05T11:04:44.909Z,2.40
2022-08-05T11:05:44.923Z,3.10
2022-08-05T11:06:44.889Z,2.60
2022-08-05T11:08:01.760Z,2.90
2022-08-05T11:08:45.873Z,2.70
2022-08-05T11:09:46.130Z,2.60
2022-08-05T11:10:50.208Z,2.80
2022-08-05T11:11:52.860Z,2.70
2022-08-05T11:12:54.199Z,2.50
2022-08-05T11:13:57.587Z,2.90
2022-08-05T11:15:19.427Z,2.70
2022-08-05T11:16:00.778Z,2.80
2022-08-05T11:16:56.095Z,3.00
2022-08-05T11:18:09.828Z,2.60
2022-08-05T11:18:46.958Z,2.40
2022-08-05T11:20:10.251Z,2.30
2022-08-05T11:20:45.815Z,2.40
2022-08-05T11:21:48.851Z,2.60
2022-08-05T11:22:44.762Z,2.40
2022-08-05T11:24:04.102Z,2.70
2022-08-05T11:24:50.572Z,2.70
2022-08-05T11:26:05.499Z,2.60
2022-08-05T11:26:49.772Z,2.90
2022-08-05T11:27:51.784Z,2.40
2022-08-05T11:28:45.728Z,2.50
2022-08-05T11:29:44.718Z,2.70
2022-08-05T11:30:44.734Z,2.90
2022-08-05T11:31:57.686Z,2.70
2022-08-05T11:32:47.794Z,2.70
2022-08-05T11:33:47.964Z,2.80
2022-08-05T11:34:51.920Z,2.60
2022-08-05T11:36:07.615Z,2.40
2022-08-05T11:36:45.659Z,2.50
2022-08-05T11:38:29.278Z,2.40
2022-08-05T11:38:51.235Z,2.20
2022-08-05T11:39:48.003Z,2.60
2022-08-05T11:40:44.628Z,2.40
2022-08-05T11:42:01.264Z,2.40
2022-08-05T11:42:45.612Z,2.90
2022-08-05T11:44:04.787Z,2.30
2022-08-05T11:44:54.027Z,2.70
2022-08-05T11:46:27.214Z,2.60
2022-08-05T11:46:58.451Z,2.80
2022-08-05T11:47:48.961Z,2.60
2022-08-05T11:48:44.565Z,2.70
2022-08-05T11:49:49.542Z,2.40
2022-08-05T11:50:45.550Z,2.70
2022-08-05T11:51:49.735Z,2.60
2022-08-05T11:52:46.157Z,2.70
2022-08-05T11:53:44.524Z,2.70
2022-08-05T11:54:48.375Z,3.10
2022-08-05T11:55:45.506Z,2.60
2022-08-05T11:56:44.532Z,3.30
2022-08-05T11:58:09.811Z,2.40
2022-08-05T11:58:52.830Z,2.30
2022-08-05T11:59:49.686Z,2.80
2022-08-05T12:00:46.981Z,2.70
2022-08-05T12:01:45.480Z,2.70
2022-08-05T12:02:45.480Z,2.90
2022-08-05T12:03:44.447Z,3.10
2022-08-05T12:04:45.437Z,2.70
2022-08-05T12:05:45.435Z,3.20
2022-08-05T12:06:48.925Z,2.80
2022-08-05T12:08:03.577Z,2.60
2022-08-05T12:08:49.926Z,3.00
2022-08-05T12:09:53.299Z,3.10
2022-08-05T12:10:46.534Z,2.60
2022-08-05T12:11:44.414Z,2.80
2022-08-05T12:12:46.647Z,2.60
2022-08-05T12:13:49.084Z,2.60
2022-08-05T12:14:47.281Z,2.80
2022-08-05T12:15:44.357Z,2.80
2022-08-05T12:16:45.378Z,2.40
2022-08-05T12:18:02.533Z,2.90
2022-08-05T12:18:48.650Z,2.80
2022-08-05T12:20:16.963Z,2.50
2022-08-05T12:20:45.308Z,2.60
2022-08-05T12:21:44.337Z,2.60
2022-08-05T12:22:46.126Z,2.80
2022-08-05T12:23:44.289Z,2.30
2022-08-05T12:24:49.466Z,3.00
2022-08-05T12:25:45.270Z,2.70
2022-08-05T12:26:44.519Z,2.90
2022-08-05T12:27:53.191Z,3.00
2022-08-05T12:28:45.253Z,3.10
2022-08-05T12:29:44.245Z,2.80
2022-08-05T12:30:45.829Z,3.10
2022-08-05T12:31:49.960Z,3.10
2022-08-05T12:32:46.225Z,3.10
2022-08-05T12:33:44.214Z,3.00
2022-08-05T12:34:44.212Z,3.00
2022-08-05T12:35:44.196Z,2.90
2022-08-05T12:36:44.286Z,2.90
2022-08-05T12:37:44.191Z,3.20
2022-08-05T12:38:44.184Z,3.20
2022-08-05T12:39:44.237Z,3.30
2022-08-05T12:40:44.356Z,3.10
2022-08-05T12:41:44.181Z,2.70
2022-08-05T12:42:44.150Z,2.90
2022-08-05T12:43:44.135Z,2.90
2022-08-05T12:44:44.134Z,3.10
2022-08-05T12:45:49.766Z,2.90
2022-08-05T12:46:45.643Z,3.10
2022-08-05T12:48:17.536Z,2.70
2022-08-05T12:48:45.094Z,2.90
2022-08-05T12:50:03.165Z,2.70
2022-08-05T12:50:45.085Z,2.80
2022-08-05T12:52:14.355Z,2.90
2022-08-05T12:52:45.066Z,3.00
2022-08-05T12:53:44.065Z,2.80
2022-08-05T12:54:45.048Z,2.70
2022-08-05T12:55:44.048Z,3.10
2022-08-05T12:56:45.139Z,2.90
2022-08-05T12:58:38.747Z,2.90
2022-08-05T12:58:53.033Z,2.80
2022-08-05T12:59:46.921Z,3.30
2022-08-05T13:02:00.180Z,3.10
2022-08-05T13:02:03.460Z,2.90
2022-08-05T13:02:47.333Z,2.80
2022-08-05T13:03:45.511Z,3.00
2022-08-05T13:04:52.514Z,2.90
2022-08-05T13:05:44.968Z,2.90
2022-08-05T13:06:51.524Z,3.20
2022-08-05T13:07:59.267Z,3.30
2022-08-05T13:08:49.090Z,3.00
2022-08-05T13:09:47.916Z,3.50
2022-08-05T13:10:50.147Z,3.20
2022-08-05T13:12:03.268Z,2.90
2022-08-05T13:12:57.314Z,3.30
2022-08-05T13:14:06.054Z,3.10
2022-08-05T13:14:44.894Z,3.10
2022-08-05T13:15:50.850Z,3.20
2022-08-05T13:16:44.915Z,2.80
2022-08-05T13:17:43.871Z,3.20
2022-08-05T13:18:43.859Z,2.90